Time;durP1;ratioP1;P1;durP2;ratioP2;P2;SDS_P1;SDS_P2;PMS_P1;PMS_P2;Temp;Humidity;BMP_temperature;BMP_pressure;BME280_temperature;BME280_humidity;BME280_pressure;Samples;Min_cycle;Max_cycle;Signal;HPM_P1;HPM_P2
2022/08/27 00:00:47;;;;;;;0.30;0.30;;;;;;;26.25;39.61;94692.88;5035620;28;20553;-66
2022/08/27 00:03:15;;;;;;;0.30;0.30;;;;;;;26.26;39.90;94705.16;5049695;28;20209;-66
2022/08/27 00:05:42;;;;;;;0.80;0.80;;;;;;;25.87;39.73;94695.63;5053456;28;20245;-66
2022/08/27 00:08:11;;;;;;;0.57;0.57;;;;;;;25.39;40.50;94704.28;5069041;28;20196;-66
2022/08/27 00:10:39;;;;;;;0.37;0.37;;;;;;;25.39;40.46;94706.97;5055320;28;20243;-64
2022/08/27 00:13:07;;;;;;;5.57;1.70;;;;;;;25.48;40.20;94691.44;5070767;28;20214;-65
2022/08/27 00:15:34;;;;;;;0.77;0.77;;;;;;;25.72;40.08;94699.19;5054546;28;20376;-66
2022/08/27 00:18:01;;;;;;;0.20;0.20;;;;;;;25.88;39.65;94697.16;5056958;28;20272;-66
2022/08/27 00:20:28;;;;;;;3.30;1.70;;;;;;;25.86;39.70;94697.53;5054812;28;20208;-66
2022/08/27 00:22:55;;;;;;;0.77;0.77;;;;;;;25.86;39.93;94702.13;5057286;28;20224;-66
2022/08/27 00:25:22;;;;;;;0.40;0.40;;;;;;;25.86;39.89;94691.38;5041419;28;20189;-65
2022/08/27 00:27:50;;;;;;;4.23;0.77;;;;;;;25.86;40.07;94691.38;5067485;28;20195;-65
2022/08/27 00:30:20;;;;;;;2.57;0.57;;;;;;;25.92;39.81;94689.97;5058357;28;20196;-65
2022/08/27 00:32:47;;;;;;;0.57;0.57;;;;;;;25.96;39.61;94685.44;5065897;28;20253;-65
2022/08/27 00:35:15;;;;;;;1.60;1.37;;;;;;;25.92;39.62;94685.38;5059356;28;20197;-65
2022/08/27 00:37:43;;;;;;;0.37;0.37;;;;;;;25.76;40.41;94682.03;5050358;28;20262;-65
2022/08/27 00:40:14;;;;;;;0.20;0.20;;;;;;;25.87;40.16;94676.84;5053439;28;20209;-66
2022/08/27 00:42:44;;;;;;;2.30;0.50;;;;;;;25.83;40.13;94681.38;5029541;28;20248;-65
2022/08/27 00:45:14;;;;;;;0.53;0.53;;;;;;;25.70;40.09;94682.66;5041436;28;20228;-67
2022/08/27 00:47:47;;;;;;;3.03;1.17;;;;;;;25.48;41.04;94686.06;5041669;28;20197;-66
2022/08/27 00:50:23;;;;;;;1.60;1.03;;;;;;;25.49;40.84;94683.00;5056342;28;20201;-66
2022/08/27 00:52:54;;;;;;;0.40;0.40;;;;;;;25.64;40.33;94684.06;5028665;28;20193;-66
2022/08/27 00:55:28;;;;;;;1.27;0.60;;;;;;;25.87;39.76;94693.72;5035555;28;20664;-66
2022/08/27 00:58:05;;;;;;;0.43;0.43;;;;;;;25.80;39.47;94690.13;5042111;28;20290;-66
2022/08/27 01:00:33;;;;;;;1.13;1.00;;;;;;;25.58;39.88;94685.50;5044664;28;20198;-66
2022/08/27 01:03:00;;;;;;;0.60;0.60;;;;;;;25.62;40.02;94687.09;5065458;28;20374;-66
2022/08/27 01:05:27;;;;;;;0.63;0.63;;;;;;;25.63;39.91;94682.53;5057095;28;20689;-65
2022/08/27 01:08:00;;;;;;;0.77;0.63;;;;;;;25.49;40.43;94682.25;5075278;28;20214;-66
2022/08/27 01:10:29;;;;;;;0.53;0.53;;;;;;;25.65;40.17;94691.00;5060996;28;20273;-66
2022/08/27 01:12:56;;;;;;;0.23;0.23;;;;;;;25.45;40.80;94686.78;5075565;28;20608;-65
2022/08/27 01:15:27;;;;;;;1.00;1.00;;;;;;;25.39;40.68;94683.59;5061339;28;20199;-65
2022/08/27 01:17:56;;;;;;;2.77;1.93;;;;;;;25.35;40.54;94684.63;5061903;28;20211;-66
2022/08/27 01:20:29;;;;;;;0.57;0.57;;;;;;;25.41;40.52;94685.91;5052657;28;20282;-66
2022/08/27 01:23:24;;;;;;;0.40;0.40;;;;;;;25.42;40.59;94687.50;5041101;28;20296;-67
2022/08/27 01:25:51;;;;;;;2.73;1.60;;;;;;;25.27;40.70;94685.63;5036514;28;20200;-66
2022/08/27 01:28:20;;;;;;;0.77;0.77;;;;;;;25.24;41.16;94680.94;5034432;28;20239;-65
2022/08/27 01:30:54;;;;;;;0.20;0.20;;;;;;;25.18;41.29;94687.72;5034026;28;20945;-66
2022/08/27 01:33:22;;;;;;;2.53;1.40;;;;;;;25.29;40.57;94694.09;5038027;28;20886;-66
2022/08/27 01:35:51;;;;;;;0.87;0.87;;;;;;;25.06;41.03;94692.09;5042994;28;20200;-65
2022/08/27 01:38:20;;;;;;;1.13;1.07;;;;;;;25.07;40.93;94690.94;5043225;28;20245;-65
2022/08/27 01:40:59;;;;;;;0.63;0.63;;;;;;;25.18;40.67;94687.72;5047026;28;20216;-65
2022/08/27 01:43:28;;;;;;;0.30;0.30;;;;;;;25.05;41.13;94695.88;5039121;28;20239;-66
2022/08/27 01:45:54;;;;;;;0.40;0.40;;;;;;;24.95;41.03;94685.72;5036640;28;20197;-65
2022/08/27 01:48:22;;;;;;;1.03;1.03;;;;;;;24.89;40.99;94681.75;5050808;28;20278;-65
2022/08/27 01:50:49;;;;;;;1.07;0.83;;;;;;;24.96;41.31;94691.88;5033942;28;20201;-67
2022/08/27 01:53:19;;;;;;;5.30;0.90;;;;;;;24.94;40.69;94684.16;5033757;28;20590;-67
2022/08/27 01:55:48;;;;;;;0.80;0.80;;;;;;;24.86;40.90;94677.09;5035780;28;20227;-66
2022/08/27 01:58:17;;;;;;;0.33;0.33;;;;;;;24.72;41.49;94684.84;5034938;28;20600;-66
2022/08/27 02:00:49;;;;;;;0.77;0.73;;;;;;;24.80;41.76;94705.28;5040214;28;20607;-65
2022/08/27 02:03:22;;;;;;;3.63;1.23;;;;;;;24.57;41.74;94701.69;5067541;28;20203;-66
2022/08/27 02:05:50;;;;;;;0.40;0.40;;;;;;;24.70;41.56;94695.13;5069395;28;20607;-66
2022/08/27 02:08:18;;;;;;;1.00;0.90;;;;;;;24.69;41.73;94701.56;5065445;28;20196;-65
2022/08/27 02:10:47;;;;;;;0.60;0.60;;;;;;;25.15;40.82;94696.47;5049557;28;20185;-66
2022/08/27 02:13:15;;;;;;;3.20;1.57;;;;;;;24.62;41.48;94698.72;5041933;28;20207;-66
2022/08/27 02:15:43;;;;;;;1.23;1.13;;;;;;;25.06;40.90;94702.03;5067710;28;20196;-65
2022/08/27 02:18:10;;;;;;;0.33;0.33;;;;;;;24.94;41.24;94692.19;5054081;28;20222;-65
2022/08/27 02:20:38;;;;;;;0.60;0.57;;;;;;;25.08;40.19;94697.88;5047584;28;20222;-66
2022/08/27 02:23:05;;;;;;;1.90;1.03;;;;;;;25.13;39.97;94706.78;5064201;28;20347;-65
2022/08/27 02:25:32;;;;;;;1.03;0.87;;;;;;;25.02;40.09;94701.97;5051315;28;20196;-66
2022/08/27 02:28:00;;;;;;;0.63;0.60;;;;;;;25.06;39.95;94702.81;5059839;28;20185;-66
2022/08/27 02:30:30;;;;;;;0.43;0.43;;;;;;;24.83;40.61;94699.25;5042923;28;20208;-66
2022/08/27 02:33:01;;;;;;;0.57;0.50;;;;;;;24.99;40.36;94702.66;5069293;28;20208;-66
2022/08/27 02:35:31;;;;;;;0.37;0.37;;;;;;;24.93;40.66;94709.41;5070872;28;20667;-65
2022/08/27 02:37:58;;;;;;;0.40;0.40;;;;;;;24.85;40.80;94712.31;5053229;28;20232;-65
2022/08/27 02:40:25;;;;;;;1.67;0.47;;;;;;;25.05;40.25;94709.28;5061143;28;20204;-65
2022/08/27 02:42:52;;;;;;;1.03;0.97;;;;;;;25.10;40.38;94713.63;5056575;28;20232;-66
2022/08/27 02:45:19;;;;;;;0.93;0.93;;;;;;;24.94;40.71;94710.97;5062627;28;20207;-65
2022/08/27 02:47:47;;;;;;;0.40;0.40;;;;;;;24.94;39.53;94727.03;5050927;28;20192;-66
2022/08/27 02:50:15;;;;;;;13.50;1.40;;;;;;;24.82;39.41;94713.78;5058249;28;20197;-66
2022/08/27 02:52:44;;;;;;;1.40;0.63;;;;;;;24.69;40.17;94720.31;5055295;28;20203;-64
2022/08/27 02:55:13;;;;;;;0.27;0.27;;;;;;;24.70;40.48;94716.56;5060278;28;20200;-65
2022/08/27 02:57:43;;;;;;;0.17;0.17;;;;;;;24.50;41.25;94722.16;5047138;28;20274;-66
2022/08/27 03:00:13;;;;;;;0.40;0.40;;;;;;;24.50;40.94;94722.94;5055692;28;20192;-66
2022/08/27 03:02:40;;;;;;;2.63;1.30;;;;;;;24.45;40.55;94715.16;5045064;28;20565;-67
2022/08/27 03:05:08;;;;;;;0.43;0.43;;;;;;;24.21;40.71;94715.34;5070611;28;20313;-66
2022/08/27 03:07:36;;;;;;;0.33;0.33;;;;;;;23.13;42.66;94727.25;5045102;28;20200;-66
2022/08/27 03:10:04;;;;;;;0.30;0.30;;;;;;;23.30;42.45;94728.91;5052950;28;20195;-66
2022/08/27 03:12:33;;;;;;;0.30;0.30;;;;;;;23.97;40.80;94726.97;5056061;28;20201;-65
2022/08/27 03:15:00;;;;;;;2.83;1.13;;;;;;;24.05;41.10;94725.25;5070378;28;20235;-66
2022/08/27 03:20:12;;;;;;;44.13;1.13;;;;;;;24.26;41.05;94728.47;5070141;28;20192;-65
2022/08/27 03:22:39;;;;;;;0.30;0.30;;;;;;;24.39;41.25;94737.97;5041958;28;20647;-65
2022/08/27 03:25:07;;;;;;;1.80;0.80;;;;;;;24.40;41.54;94728.81;5059924;28;20242;-66
2022/08/27 03:27:34;;;;;;;0.80;0.80;;;;;;;24.38;41.25;94743.69;5052076;28;20651;-65
2022/08/27 03:30:04;;;;;;;0.73;0.70;;;;;;;24.44;41.01;94736.94;5053297;28;20727;-66
2022/08/27 03:32:31;;;;;;;0.30;0.30;;;;;;;24.39;40.98;94731.84;5030731;28;20197;-65
2022/08/27 03:34:58;;;;;;;0.37;0.37;;;;;;;24.29;41.42;94738.47;5057037;28;20732;-66
2022/08/27 03:37:25;;;;;;;1.13;1.07;;;;;;;24.44;41.10;94737.72;5043274;28;20622;-65
2022/08/27 03:39:53;;;;;;;0.83;0.83;;;;;;;24.37;41.35;94745.59;5049410;28;20315;-65
2022/08/27 03:42:20;;;;;;;1.33;0.77;;;;;;;24.38;41.31;94752.47;5061203;28;20685;-65
2022/08/27 03:44:48;;;;;;;0.30;0.30;;;;;;;24.38;41.47;94749.81;5051178;28;20216;-66
2022/08/27 03:47:15;;;;;;;1.17;1.07;;;;;;;24.48;41.32;94751.97;5059881;28;20192;-64
2022/08/27 03:49:42;;;;;;;0.43;0.43;;;;;;;24.31;41.63;94746.97;5065196;28;20214;-64
2022/08/27 03:52:09;;;;;;;1.20;1.07;;;;;;;24.49;40.84;94748.16;5045664;28;20257;-65
2022/08/27 03:54:37;;;;;;;0.93;0.77;;;;;;;24.40;41.37;94749.47;5041537;28;20201;-67
2022/08/27 03:57:04;;;;;;;2.13;0.70;;;;;;;24.43;40.96;94752.25;5036097;28;20604;-66
2022/08/27 03:59:32;;;;;;;2.93;1.27;;;;;;;24.41;41.62;94749.13;5050782;28;20691;-65
2022/08/27 04:02:01;;;;;;;25.17;1.93;;;;;;;24.36;41.50;94760.09;5046970;28;20620;-66
2022/08/27 04:04:28;;;;;;;0.80;0.80;;;;;;;24.27;41.97;94751.44;5061808;28;20287;-66
2022/08/27 04:06:56;;;;;;;1.50;1.07;;;;;;;24.06;42.14;94761.63;5063585;28;20195;-65
2022/08/27 04:09:25;;;;;;;1.23;1.00;;;;;;;24.15;42.06;94748.06;5050229;28;20238;-65
2022/08/27 04:11:52;;;;;;;1.40;1.13;;;;;;;24.14;42.31;94758.00;5062661;28;20199;-66
2022/08/27 04:14:19;;;;;;;0.30;0.30;;;;;;;24.30;42.29;94761.47;5059705;28;20197;-65
2022/08/27 04:16:55;;;;;;;0.23;0.23;;;;;;;24.08;42.66;94764.72;5053743;28;20902;-66
2022/08/27 04:19:26;;;;;;;1.60;0.93;;;;;;;24.02;42.84;94766.88;5068979;28;20211;-67
2022/08/27 04:21:59;;;;;;;2.23;1.60;;;;;;;24.11;42.35;94764.03;5057860;28;20269;-65
2022/08/27 04:24:27;;;;;;;0.43;0.43;;;;;;;24.01;42.88;94765.31;5035278;28;20196;-64
2022/08/27 04:26:54;;;;;;;3.40;1.50;;;;;;;24.08;42.60;94767.41;5059927;28;20230;-66
2022/08/27 04:29:21;;;;;;;1.80;0.93;;;;;;;23.99;43.20;94767.53;5049143;28;20228;-66
2022/08/27 04:31:48;;;;;;;1.50;0.77;;;;;;;24.12;42.61;94768.28;5046545;28;20195;-65
2022/08/27 04:34:16;;;;;;;1.80;1.23;;;;;;;24.03;43.20;94773.03;5039419;28;20204;-66
2022/08/27 04:36:44;;;;;;;0.47;0.47;;;;;;;24.07;43.26;94779.22;5049104;28;20253;-65
2022/08/27 04:39:12;;;;;;;0.20;0.20;;;;;;;23.97;43.63;94763.66;5048781;28;20228;-65
2022/08/27 04:41:40;;;;;;;0.27;0.27;;;;;;;24.09;43.06;94766.28;5035553;28;20200;-64
2022/08/27 04:44:09;;;;;;;1.17;0.97;;;;;;;24.06;43.63;94761.63;5038063;28;20239;-66
2022/08/27 04:46:38;;;;;;;0.80;0.50;;;;;;;24.03;43.58;94767.66;5068008;28;20771;-64
2022/08/27 04:49:09;;;;;;;1.00;0.73;;;;;;;24.23;43.21;94769.34;5059369;28;20196;-65
2022/08/27 04:51:38;;;;;;;1.00;1.00;;;;;;;24.06;43.44;94772.31;5035130;28;20197;-66
2022/08/27 04:54:07;;;;;;;1.27;1.17;;;;;;;24.18;43.23;94776.84;5038286;28;20210;-64
2022/08/27 04:56:35;;;;;;;1.20;1.07;;;;;;;24.31;43.46;94779.09;5043206;28;20224;-64
2022/08/27 04:59:05;;;;;;;1.27;1.17;;;;;;;24.25;43.01;94785.81;5037534;28;20247;-66
2022/08/27 05:01:32;;;;;;;2.93;1.43;;;;;;;24.35;42.91;94784.53;5034885;28;20283;-65
2022/08/27 05:03:59;;;;;;;2.73;1.17;;;;;;;24.08;43.12;94783.47;5026006;28;20295;-66
2022/08/27 05:06:26;;;;;;;0.33;0.33;;;;;;;24.30;42.46;94782.91;5031958;28;20212;-64
2022/08/27 05:08:54;;;;;;;1.37;1.27;;;;;;;24.44;42.56;94777.09;5036923;28;20212;-65
2022/08/27 05:11:25;;;;;;;0.50;0.50;;;;;;;24.60;42.18;94781.34;5051879;28;20192;-67
2022/08/27 05:13:53;;;;;;;1.10;1.00;;;;;;;24.56;42.35;94785.09;5039456;28;20200;-67
2022/08/27 05:16:21;;;;;;;0.40;0.40;;;;;;;24.75;41.32;94788.66;5055988;28;20211;-66
2022/08/27 05:18:50;;;;;;;0.23;0.23;;;;;;;24.41;42.07;94799.25;5051156;28;20280;-68
2022/08/27 05:21:26;;;;;;;0.20;0.20;;;;;;;24.60;42.15;94791.28;5068545;28;20211;-73
2022/08/27 05:23:55;;;;;;;0.73;0.73;;;;;;;24.60;42.02;94781.34;5038912;28;20214;-71
2022/08/27 05:26:22;;;;;;;1.20;1.10;;;;;;;24.48;42.38;94784.13;5068314;28;20184;-67
2022/08/27 05:28:49;;;;;;;0.43;0.43;;;;;;;24.64;42.26;94784.91;5063940;28;20662;-71
2022/08/27 05:31:18;;;;;;;0.40;0.40;;;;;;;24.37;42.97;94793.78;5035576;28;20188;-68
2022/08/27 05:33:45;;;;;;;3.20;1.23;;;;;;;24.74;41.31;94789.75;5033526;28;20205;-73
2022/08/27 05:36:26;;;;;;;1.47;1.17;;;;;;;24.45;42.43;94784.78;5054877;28;20264;-70
2022/08/27 05:38:55;;;;;;;0.50;0.50;;;;;;;24.30;42.94;94779.44;5066891;28;20694;-71
2022/08/27 05:41:28;;;;;;;1.70;1.37;;;;;;;24.69;42.36;94787.31;5040293;28;20267;-74
2022/08/27 05:44:08;;;;;;;0.50;0.50;;;;;;;24.66;42.40;94789.91;5057380;28;20250;-69
2022/08/27 05:46:55;;;;;;;0.73;0.73;;;;;;;24.66;42.06;94800.63;5071675;28;20188;-71
2022/08/27 05:49:21;;;;;;;0.77;0.73;;;;;;;24.47;42.28;94801.31;5064969;28;20192;-68
2022/08/27 05:51:48;;;;;;;0.40;0.40;;;;;;;24.18;43.70;94777.59;5041025;28;20207;-68
2022/08/27 05:54:19;;;;;;;0.70;0.70;;;;;;;24.59;42.73;94801.25;5070723;28;20214;-71
2022/08/27 05:56:48;;;;;;;1.47;1.37;;;;;;;24.74;42.65;94795.13;5038179;28;20208;-69
2022/08/27 06:02:22;;;;;;;0.70;0.70;;;;;;;25.02;41.67;94803.06;5052567;28;20192;-72
2022/08/27 06:04:49;;;;;;;0.50;0.50;;;;;;;25.12;41.19;94791.03;5068107;28;20200;-72
2022/08/27 06:07:16;;;;;;;1.13;0.73;;;;;;;24.89;41.23;94796.22;5055949;28;20203;-73
2022/08/27 06:09:42;;;;;;;0.50;0.50;;;;;;;24.79;41.68;94794.88;5061599;28;20695;-66
2022/08/27 06:12:09;;;;;;;0.50;0.50;;;;;;;25.29;40.68;94798.69;5065989;28;20191;-68
2022/08/27 06:14:37;;;;;;;4.10;1.70;;;;;;;25.72;39.97;94798.47;5063266;28;20208;-73
2022/08/27 06:17:05;;;;;;;1.57;1.47;;;;;;;25.32;40.72;94806.03;5064698;28;20211;-71
2022/08/27 06:19:33;;;;;;;1.13;1.03;;;;;;;24.90;41.31;94795.91;5031003;28;20208;-68
2022/08/27 06:22:01;;;;;;;0.60;0.60;;;;;;;24.77;41.93;94807.06;5055546;28;20204;-71
2022/08/27 06:24:39;;;;;;;0.87;0.80;;;;;;;24.67;42.21;94797.59;5058634;28;20247;-67
2022/08/27 06:27:10;;;;;;;0.47;0.47;;;;;;;24.90;41.96;94801.25;5030249;28;20205;-71
2022/08/27 06:29:38;;;;;;;2.30;0.83;;;;;;;25.00;41.71;94808.75;5044470;28;20212;-71
2022/08/27 06:32:05;;;;;;;0.93;0.83;;;;;;;24.87;41.07;94721.53;5042020;28;20188;-74
2022/08/27 06:34:32;;;;;;;0.30;0.30;;;;;;;25.61;41.49;94808.22;5060567;28;20204;-68
2022/08/27 06:36:59;;;;;;;0.30;0.30;;;;;;;25.55;40.88;94804.25;5050182;28;20188;-72
2022/08/27 06:39:26;;;;;;;0.30;0.30;;;;;;;25.17;40.78;94809.50;5042206;28;20252;-72
2022/08/27 06:41:57;;;;;;;1.27;1.23;;;;;;;25.58;40.40;94790.16;5070279;28;20196;-73
2022/08/27 06:44:24;;;;;;;1.20;1.13;;;;;;;26.46;39.08;94806.06;5068487;28;20196;-71
2022/08/27 06:46:52;;;;;;;0.93;0.93;;;;;;;26.12;40.05;94812.34;5037046;28;20196;-72
2022/08/27 06:49:20;;;;;;;0.63;0.30;;;;;;;26.34;40.09;94803.56;5063760;28;20688;-72
2022/08/27 06:51:46;;;;;;;0.47;0.47;;;;;;;26.69;38.77;94801.53;5037512;28;20274;-70
2022/08/27 06:54:15;;;;;;;0.33;0.33;;;;;;;26.71;39.59;94799.25;5049858;28;20272;-74
2022/08/27 06:56:43;;;;;;;0.57;0.57;;;;;;;26.66;39.53;94796.81;5035388;28;20205;-70
2022/08/27 06:59:13;;;;;;;0.30;0.30;;;;;;;26.79;38.21;94795.53;5042112;28;20218;-73
2022/08/27 07:01:42;;;;;;;0.20;0.20;;;;;;;26.57;38.08;94798.97;5034154;28;20197;-70
2022/08/27 07:04:13;;;;;;;0.60;0.60;;;;;;;26.73;38.02;94799.66;5035511;28;20741;-71
2022/08/27 07:06:40;;;;;;;0.30;0.30;;;;;;;27.24;37.25;94791.22;5026681;28;20527;-73
2022/08/27 07:09:09;;;;;;;0.77;0.77;;;;;;;26.63;38.07;94797.53;5029258;28;20220;-70
2022/08/27 07:11:37;;;;;;;2.27;0.67;;;;;;;26.54;38.33;94799.69;5043044;28;20623;-69
2022/08/27 07:14:05;;;;;;;2.33;1.07;;;;;;;27.32;37.21;94795.56;5037444;28;20203;-70
2022/08/27 07:16:32;;;;;;;0.63;0.63;;;;;;;27.26;37.96;94791.63;5035146;28;20247;-70
2022/08/27 07:19:04;;;;;;;2.07;1.47;;;;;;;27.12;38.75;94783.34;5033947;28;20221;-70
2022/08/27 07:21:32;;;;;;;2.33;2.13;;;;;;;27.74;37.11;94788.84;5033476;28;20211;-70
2022/08/27 07:24:03;;;;;;;1.20;1.10;;;;;;;27.94;35.85;94781.41;5030091;28;20235;-71
2022/08/27 07:26:36;;;;;;;0.97;0.97;;;;;;;27.33;37.31;94786.38;5042925;28;20201;-71
2022/08/27 07:29:06;;;;;;;3.33;2.97;;;;;;;27.64;37.07;94797.59;5027803;28;20719;-71
2022/08/27 07:31:34;;;;;;;11.57;5.57;;;;;;;28.16;36.97;94785.91;5026948;28;20193;-72
2022/08/27 07:34:03;;;;;;;0.70;0.70;;;;;;;28.38;36.59;94801.16;5030860;28;20193;-75
2022/08/27 07:36:32;;;;;;;0.50;0.50;;;;;;;28.24;36.26;94795.63;5036305;28;20199;-71
2022/08/27 07:38:59;;;;;;;2.90;1.47;;;;;;;28.12;34.95;94793.16;5029244;28;20208;-72
2022/08/27 07:41:29;;;;;;;2.67;2.17;;;;;;;28.65;34.87;94789.09;5029365;28;20636;-72
2022/08/27 07:46:45;;;;;;;1.93;1.83;;;;;;;28.44;35.00;94786.19;5029179;28;20198;-69
2022/08/27 07:49:18;;;;;;;1.07;1.03;;;;;;;28.48;34.75;94795.09;5029337;28;20185;-66
2022/08/27 07:51:45;;;;;;;1.60;1.10;;;;;;;28.40;36.75;94798.84;5032293;28;20208;-68
2022/08/27 07:54:14;;;;;;;1.00;0.87;;;;;;;28.56;36.41;94802.13;5035264;28;20200;-68
2022/08/27 07:56:42;;;;;;;0.97;0.97;;;;;;;28.57;36.40;94795.59;5029724;28;20288;-68
2022/08/27 07:59:26;;;;;;;0.60;0.60;;;;;;;28.55;35.56;94791.72;5029872;28;20252;-68
2022/08/27 08:01:54;;;;;;;0.50;0.50;;;;;;;28.77;36.11;94791.53;5026961;28;20351;-67
2022/08/27 08:04:22;;;;;;;3.30;0.90;;;;;;;29.23;35.04;94796.53;5029848;28;20584;-72
2022/08/27 08:06:50;;;;;;;1.00;0.97;;;;;;;29.25;34.24;94794.25;5028308;28;20208;-72
2022/08/27 08:09:17;;;;;;;4.90;3.77;;;;;;;29.87;33.24;94793.06;5029398;28;20686;-68
2022/08/27 08:11:44;;;;;;;0.70;0.70;;;;;;;30.05;31.98;94788.50;5030136;28;20277;-72
2022/08/27 08:14:11;;;;;;;0.60;0.60;;;;;;;29.82;32.04;94790.72;5030386;28;20244;-74
2022/08/27 08:16:38;;;;;;;0.40;0.40;;;;;;;29.86;32.50;94786.88;5037334;28;20193;-70
2022/08/27 08:19:05;;;;;;;0.70;0.70;;;;;;;29.28;32.48;94788.06;5032045;28;20328;-71
2022/08/27 08:21:32;;;;;;;1.33;1.20;;;;;;;29.59;33.39;94774.78;5031532;28;20201;-70
2022/08/27 08:24:01;;;;;;;1.07;0.93;;;;;;;30.16;33.40;94783.91;5028480;28;20540;-66
2022/08/27 08:26:28;;;;;;;0.60;0.60;;;;;;;30.23;33.03;94775.81;5029485;28;20196;-70
2022/08/27 08:28:55;;;;;;;0.43;0.43;;;;;;;30.61;31.56;94775.13;5034731;28;20196;-69
2022/08/27 08:31:26;;;;;;;0.70;0.70;;;;;;;30.83;31.59;94773.22;5047827;28;20320;-70
2022/08/27 08:33:53;;;;;;;0.93;0.60;;;;;;;30.83;31.16;94771.31;5051234;28;20196;-67
2022/08/27 08:36:20;;;;;;;0.50;0.50;;;;;;;30.40;32.04;94775.09;5058564;28;20204;-71
2022/08/27 08:38:49;;;;;;;1.77;1.67;;;;;;;30.46;31.34;94770.84;5062838;28;20196;-72
2022/08/27 08:41:30;;;;;;;8.30;1.27;;;;;;;30.34;30.75;94771.22;5038654;28;20221;-71
2022/08/27 08:44:01;;;;;;;7.33;1.30;;;;;;;30.57;31.18;94777.06;5037045;28;20244;-73
2022/08/27 08:46:57;;;;;;;0.30;0.30;;;;;;;30.65;30.92;94778.63;5032113;28;20719;-72
2022/08/27 08:50:15;;;;;;;1.00;0.83;;;;;;;30.97;30.08;94777.88;5047758;28;20698;-72
2022/08/27 08:53:01;;;;;;;0.90;0.90;;;;;;;30.58;30.41;94777.84;5067704;28;20234;-67
2022/08/27 08:55:34;;;;;;;0.57;0.57;;;;;;;31.40;30.37;94773.97;5067642;28;20192;-69
2022/08/27 08:58:07;;;;;;;2.20;1.27;;;;;;;31.62;29.14;94770.06;5062097;28;20228;-69
2022/08/27 09:00:38;;;;;;;0.23;0.23;;;;;;;31.73;30.42;94765.38;5051871;28;20231;-72
2022/08/27 09:03:06;;;;;;;1.63;1.53;;;;;;;31.63;30.89;94755.34;5057591;28;20196;-74
2022/08/27 09:05:37;;;;;;;0.97;0.87;;;;;;;32.11;31.36;94756.34;5050773;28;20203;-73
2022/08/27 09:08:14;;;;;;;1.03;1.03;;;;;;;31.90;30.44;94764.56;5061555;28;20246;-71
2022/08/27 09:11:19;;;;;;;0.97;0.63;;;;;;;32.14;29.67;94762.88;5052309;28;20200;-72
2022/08/27 09:13:54;;;;;;;1.87;1.17;;;;;;;32.69;29.01;94753.66;5063249;28;20204;-69
2022/08/27 09:16:21;;;;;;;2.90;1.37;;;;;;;31.58;27.47;94755.75;5052195;28;20204;-71
2022/08/27 09:18:48;;;;;;;0.70;0.70;;;;;;;31.49;27.02;94755.38;5057733;28;20218;-70
2022/08/27 09:21:43;;;;;;;0.70;0.70;;;;;;;31.83;27.28;94753.72;5044953;28;20310;-71
2022/08/27 09:24:29;;;;;;;27.03;1.13;;;;;;;30.59;27.93;94755.81;5069382;28;20204;-75
2022/08/27 09:26:56;;;;;;;0.40;0.40;;;;;;;31.49;28.07;94747.25;5062698;28;20849;-73
2022/08/27 09:29:27;;;;;;;1.80;1.23;;;;;;;31.09;27.27;94747.72;5057815;28;20196;-71
2022/08/27 09:32:07;;;;;;;0.93;0.93;;;;;;;31.64;27.19;94748.78;5061380;28;20279;-74
2022/08/27 09:34:37;;;;;;;4.10;0.70;;;;;;;32.08;26.66;94746.25;5062100;28;20211;-71
2022/08/27 09:37:19;;;;;;;6.93;0.90;;;;;;;32.53;25.69;94747.97;5052372;28;20196;-70
2022/08/27 09:39:47;;;;;;;0.57;0.57;;;;;;;32.44;25.36;94744.94;5043017;28;20759;-70
2022/08/27 09:42:22;;;;;;;1.80;0.60;;;;;;;33.16;24.94;94732.34;5049960;28;20197;-70
2022/08/27 09:44:49;;;;;;;0.67;0.67;;;;;;;33.34;24.70;94741.09;5039490;28;20283;-70
2022/08/27 09:47:19;;;;;;;0.47;0.47;;;;;;;33.71;24.56;94738.38;5060245;28;20557;-73
2022/08/27 09:49:46;;;;;;;0.50;0.50;;;;;;;33.81;23.65;94721.19;5063471;28;20273;-70
2022/08/27 09:52:43;;;;;;;0.87;0.70;;;;;;;33.62;24.59;94738.88;5048123;28;20203;-69
2022/08/27 09:55:10;;;;;;;0.50;0.50;;;;;;;33.57;25.03;94743.97;5047894;28;20205;-70
2022/08/27 09:57:40;;;;;;;1.53;1.43;;;;;;;34.27;24.00;94737.66;5030922;28;20251;-70
2022/08/27 10:00:14;;;;;;;0.77;0.77;;;;;;;33.76;25.34;94743.34;5031462;28;20228;-69
2022/08/27 10:02:51;;;;;;;1.40;1.30;;;;;;;34.03;24.39;94746.19;5070902;28;20313;-68
2022/08/27 10:05:29;;;;;;;1.50;1.13;;;;;;;34.22;24.11;94738.13;5055592;28;20253;-69
2022/08/27 10:08:24;;;;;;;1.60;0.73;;;;;;;34.14;25.19;94733.94;5059152;28;20196;-69
2022/08/27 10:10:53;;;;;;;1.37;1.17;;;;;;;34.53;23.39;94728.78;5041872;28;20191;-70
2022/08/27 10:13:56;;;;;;;0.70;0.70;;;;;;;34.56;23.03;94727.94;5048655;28;20618;-72
2022/08/27 10:16:58;;;;;;;3.87;1.37;;;;;;;34.54;23.27;94722.13;5034036;28;20200;-70
2022/08/27 10:19:47;;;;;;;0.50;0.50;;;;;;;34.48;24.82;94731.97;5068163;28;20249;-67
2022/08/27 10:22:13;;;;;;;0.87;0.87;;;;;;;34.33;22.84;94727.88;5070564;28;20195;-66
2022/08/27 10:24:58;;;;;;;0.40;0.40;;;;;;;34.97;23.04;94724.97;5064118;28;20230;-66
2022/08/27 10:27:31;;;;;;;0.60;0.60;;;;;;;34.72;23.83;94730.81;5064504;28;20214;-68
2022/08/27 10:30:31;;;;;;;1.10;1.00;;;;;;;35.01;21.51;94725.69;5057562;28;20295;-68
2022/08/27 10:33:11;;;;;;;0.40;0.40;;;;;;;34.58;23.16;94725.56;5056161;28;20261;-67
2022/08/27 10:35:44;;;;;;;0.50;0.50;;;;;;;34.83;21.18;94719.75;5057179;28;20606;-67
2022/08/27 10:38:37;;;;;;;0.47;0.47;;;;;;;35.01;23.20;94730.38;5043479;28;20256;-65
2022/08/27 10:41:36;;;;;;;0.93;0.93;;;;;;;35.19;22.61;94725.38;5065648;28;20224;-69
2022/08/27 10:44:31;;;;;;;0.70;0.70;;;;;;;35.19;21.29;94725.38;5053630;28;20244;-66
2022/08/27 10:47:23;;;;;;;0.60;0.60;;;;;;;35.87;21.07;94706.56;5045959;28;20200;-68
2022/08/27 10:50:26;;;;;;;0.60;0.60;;;;;;;35.55;21.47;94727.06;5049644;28;20204;-66
2022/08/27 10:53:10;;;;;;;0.43;0.43;;;;;;;34.28;20.88;94733.00;5057154;28;20210;-66
2022/08/27 10:55:44;;;;;;;0.43;0.43;;;;;;;34.29;20.42;94724.44;5059672;28;20622;-65
2022/08/27 10:58:14;;;;;;;0.50;0.50;;;;;;;35.13;21.28;94721.59;5042244;28;20277;-68
2022/08/27 11:00:54;;;;;;;1.10;1.00;;;;;;;35.28;22.10;94718.19;5049859;28;20239;-66
2022/08/27 11:03:37;;;;;;;1.90;0.70;;;;;;;35.44;20.62;94726.50;5037572;28;20227;-69
2022/08/27 11:06:56;;;;;;;0.97;0.73;;;;;;;36.04;20.54;94721.81;5044658;28;20252;-67
2022/08/27 11:09:33;;;;;;;0.90;0.77;;;;;;;35.60;17.98;94723.09;5035999;28;20196;-71
2022/08/27 11:12:05;;;;;;;1.40;1.20;;;;;;;34.03;19.17;94711.59;5063516;28;20219;-68
2022/08/27 11:14:55;;;;;;;0.47;0.47;;;;;;;34.97;19.04;94718.75;5029129;28;20582;-66
2022/08/27 11:17:49;;;;;;;1.30;0.87;;;;;;;35.69;19.12;94715.13;5042958;28;20203;-68
2022/08/27 11:20:45;;;;;;;0.60;0.60;;;;;;;35.10;20.01;94711.53;5053385;28;20219;-70
2022/08/27 11:23:18;;;;;;;0.30;0.30;;;;;;;35.74;19.63;94706.44;5035869;28;20303;-69
2022/08/27 11:25:55;;;;;;;5.83;2.07;;;;;;;35.77;19.30;94704.84;5069662;28;20239;-67
2022/08/27 11:28:50;;;;;;;2.27;1.33;;;;;;;35.45;19.87;94706.25;5039713;28;20220;-67
2022/08/27 11:31:35;;;;;;;1.53;1.43;;;;;;;35.67;19.87;94701.13;5048748;28;20209;-70
2022/08/27 11:34:32;;;;;;;17.87;3.10;;;;;;;36.14;19.86;94691.59;5030013;28;20652;-70
2022/08/27 11:37:06;;;;;;;2.03;1.40;;;;;;;36.31;20.21;94684.97;5028475;28;20232;-69
2022/08/27 11:39:51;;;;;;;1.47;1.37;;;;;;;36.23;20.38;94693.72;5038556;28;20662;-70
2022/08/27 11:42:44;;;;;;;1.13;1.07;;;;;;;36.18;20.39;94686.81;5062200;28;20659;-68
2022/08/27 11:45:27;;;;;;;3.83;1.30;;;;;;;36.40;20.11;94676.22;5062454;28;20612;-66
2022/08/27 11:47:59;;;;;;;0.47;0.47;;;;;;;36.66;19.36;94688.84;5044779;28;20214;-65
2022/08/27 11:50:29;;;;;;;0.50;0.50;;;;;;;36.86;18.67;94675.13;5045939;28;20272;-64
2022/08/27 11:53:02;;;;;;;0.47;0.47;;;;;;;36.82;19.24;94679.88;5029257;28;20197;-63
2022/08/27 11:55:35;;;;;;;0.50;0.50;;;;;;;36.27;18.30;94684.28;5057056;28;20193;-64
2022/08/27 11:58:07;;;;;;;0.50;0.50;;;;;;;35.91;17.86;94672.63;5028655;28;20608;-67
2022/08/27 12:00:40;;;;;;;7.33;3.93;;;;;;;36.43;18.06;94676.13;5042089;28;20228;-64
2022/08/27 12:03:22;;;;;;;1.37;1.10;;;;;;;36.12;17.17;94672.13;5032954;28;20585;-65
2022/08/27 12:05:52;;;;;;;0.87;0.50;;;;;;;36.73;18.23;94671.53;5048640;28;20200;-66